createdAt,value
2023-06-10T00:03:48.530Z,52.67
2023-06-10T00:08:52.428Z,52.53
2023-06-10T00:13:55.376Z,52.30
2023-06-10T00:19:02.311Z,52.27
2023-06-10T00:24:07.601Z,52.24
2023-06-10T00:29:10.593Z,52.20
2023-06-10T00:34:13.649Z,52.17
2023-06-10T00:39:17.780Z,52.20
2023-06-10T00:44:20.961Z,52.30
2023-06-10T00:49:25.087Z,52.25
2023-06-10T00:54:28.442Z,52.16
2023-06-10T00:59:32.326Z,52.14
2023-06-10T01:04:38.722Z,51.91
2023-06-10T01:10:08.358Z,51.91
2023-06-10T01:15:27.499Z,51.81
2023-06-10T01:20:33.480Z,51.78
2023-06-10T01:25:59.253Z,51.59
2023-06-10T01:31:35.213Z,51.64
2023-06-10T01:36:43.692Z,51.69
2023-06-10T01:41:48.901Z,51.54
2023-06-10T01:46:53.863Z,51.57
2023-06-10T01:51:56.724Z,51.31
2023-06-10T01:56:59.476Z,51.20
2023-06-10T02:02:03.458Z,51.11
2023-06-10T02:07:09.642Z,50.85
2023-06-10T02:12:12.790Z,50.82
2023-06-10T02:17:15.826Z,50.95
2023-06-10T02:22:20.508Z,51.10
2023-06-10T02:27:25.739Z,51.06
2023-06-10T02:32:29.413Z,51.13
2023-06-10T02:37:32.290Z,51.17
2023-06-10T02:42:36.264Z,51.07
2023-06-10T02:47:44.093Z,49.95
2023-06-10T02:52:49.022Z,48.16
2023-06-10T02:57:52.101Z,47.08
2023-06-10T03:02:58.707Z,47.09
2023-06-10T03:08:01.823Z,46.76
2023-06-10T03:13:06.964Z,46.06
2023-06-10T03:18:09.673Z,44.43
2023-06-10T03:23:12.732Z,42.61
2023-06-10T03:28:15.915Z,41.86
2023-06-10T03:33:23.239Z,42.05
2023-06-10T03:38:25.989Z,41.65
2023-06-10T03:43:28.825Z,40.89
2023-06-10T03:48:32.182Z,38.69
2023-06-10T03:53:38.160Z,37.18
2023-06-10T03:58:45.930Z,36.58
2023-06-10T04:03:52.285Z,35.68
2023-06-10T04:08:55.246Z,35.01
2023-06-10T04:13:57.975Z,33.87
2023-06-10T04:19:01.859Z,33.04
2023-06-10T04:24:05.418Z,32.15
2023-06-10T04:29:18.085Z,31.06
2023-06-10T04:34:20.753Z,29.96
2023-06-10T04:39:23.698Z,29.18
2023-06-10T04:44:26.435Z,28.37
2023-06-10T04:49:31.126Z,28.03
2023-06-10T04:54:33.906Z,27.38
2023-06-10T04:59:38.665Z,27.49
2023-06-10T05:04:44.050Z,26.79
2023-06-10T05:09:50.717Z,26.22
2023-06-10T05:14:53.479Z,25.80
2023-06-10T05:19:57.237Z,25.73
2023-06-10T05:24:59.806Z,25.40
2023-06-10T05:30:05.679Z,25.19
2023-06-10T05:35:08.685Z,25.16
2023-06-10T05:40:12.705Z,25.23
2023-06-10T05:45:15.600Z,24.52
2023-06-10T05:50:18.569Z,24.30
2023-06-10T05:55:22.575Z,24.70
2023-06-10T06:00:25.379Z,24.35
2023-06-10T06:05:36.007Z,24.76
2023-06-10T06:10:39.129Z,24.47
2023-06-10T06:15:41.819Z,24.13
2023-06-10T06:20:44.719Z,24.05
2023-06-10T06:25:47.404Z,24.32
2023-06-10T06:30:50.087Z,24.47
2023-06-10T06:35:54.886Z,24.42
2023-06-10T06:40:57.892Z,24.16
2023-06-10T06:46:03.445Z,24.55
2023-06-10T06:51:06.369Z,24.72
2023-06-10T06:56:09.177Z,24.62
2023-06-10T07:01:11.938Z,25.15
2023-06-10T07:06:15.964Z,25.11
2023-06-10T07:11:21.254Z,24.34
2023-06-10T07:16:29.128Z,24.25
2023-06-10T07:21:33.290Z,24.52
2023-06-10T07:26:37.214Z,24.30
2023-06-10T07:31:41.686Z,24.24
2023-06-10T07:36:44.415Z,24.42
2023-06-10T07:41:47.105Z,23.59
2023-06-10T07:46:50.469Z,22.67
2023-06-10T07:51:56.127Z,21.97
2023-06-10T07:56:58.780Z,21.95
2023-06-10T08:02:01.527Z,23.14
2023-06-10T08:07:04.757Z,23.67
2023-06-10T08:12:08.808Z,23.61
2023-06-10T08:17:11.969Z,23.62
2023-06-10T08:22:15.924Z,24.04
2023-06-10T08:27:19.159Z,24.77
2023-06-10T08:32:21.930Z,24.96
2023-06-10T08:37:25.685Z,24.64
2023-06-10T08:42:46.809Z,25.00
2023-06-10T08:47:54.480Z,24.78
2023-06-10T08:53:00.166Z,25.40
2023-06-10T08:58:04.982Z,24.67
2023-06-10T09:03:10.318Z,24.73
2023-06-10T09:08:16.421Z,24.41
2023-06-10T09:13:20.104Z,24.79
2023-06-10T09:18:24.144Z,25.46
2023-06-10T09:23:27.353Z,25.51
2023-06-10T09:28:30.518Z,25.60
2023-06-10T09:33:35.574Z,25.48
2023-06-10T09:38:39.082Z,25.19
2023-06-10T09:43:47.540Z,25.65
2023-06-10T09:48:53.397Z,26.19
2023-06-10T09:54:02.169Z,26.00
2023-06-10T09:59:07.358Z,25.79
2023-06-10T10:04:09.986Z,26.02
2023-06-10T10:09:18.952Z,25.39
2023-06-10T10:14:23.712Z,25.81
2023-06-10T10:19:48.327Z,25.48
2023-06-10T10:24:56.489Z,25.07
2023-06-10T10:30:13.714Z,26.22
2023-06-10T10:35:24.719Z,27.30
2023-06-10T10:40:32.888Z,28.66
2023-06-10T10:45:37.407Z,29.09
2023-06-10T10:50:41.791Z,29.10
2023-06-10T10:56:08.043Z,29.03
2023-06-10T11:01:18.405Z,29.75
2023-06-10T11:06:23.183Z,29.09
2023-06-10T11:11:29.205Z,29.36
2023-06-10T11:16:44.339Z,30.02
2023-06-10T11:22:18.903Z,30.02
2023-06-10T11:27:28.491Z,28.34
2023-06-10T11:32:36.432Z,27.84
2023-06-10T11:37:43.386Z,28.26
2023-06-10T11:42:46.982Z,29.14
2023-06-10T11:48:00.727Z,28.91
2023-06-10T11:53:12.362Z,27.94
2023-06-10T11:58:26.266Z,29.00
2023-06-10T12:03:40.952Z,28.38
2023-06-10T12:08:45.162Z,28.63
2023-06-10T12:13:51.686Z,28.52
2023-06-10T12:19:04.238Z,28.28
2023-06-10T12:24:12.649Z,28.32
2023-06-10T12:29:26.050Z,28.10
2023-06-10T12:34:31.474Z,28.72
2023-06-10T12:39:35.406Z,28.94
2023-06-10T12:44:42.447Z,28.33
2023-06-10T12:49:48.388Z,27.86
2023-06-10T12:54:51.222Z,28.70
2023-06-10T12:59:55.714Z,27.68
2023-06-10T13:04:58.507Z,27.44
2023-06-10T13:10:04.050Z,27.64
2023-06-10T13:15:11.169Z,28.12
2023-06-10T13:20:14.207Z,28.10
2023-06-10T13:25:18.726Z,28.22
2023-06-10T13:30:21.774Z,28.09
2023-06-10T13:35:24.516Z,27.80
2023-06-10T13:40:28.136Z,27.05
2023-06-10T13:45:31.470Z,27.55
2023-06-10T13:50:34.301Z,27.21
2023-06-10T13:55:39.161Z,27.50
2023-06-10T14:00:42.181Z,27.26
2023-06-10T14:05:44.883Z,27.34
2023-06-10T14:10:52.451Z,27.53
2023-06-10T14:15:55.631Z,27.41
2023-06-10T14:21:00.577Z,27.25
2023-06-10T14:26:09.431Z,27.62
2023-06-10T14:31:12.127Z,27.85
2023-06-10T14:36:17.347Z,27.84
2023-06-10T14:41:20.021Z,28.14
2023-06-10T14:46:22.992Z,27.95
2023-06-10T14:51:27.805Z,27.62
2023-06-10T14:56:35.083Z,27.40
2023-06-10T15:01:40.297Z,26.94
2023-06-10T15:06:44.497Z,27.28
2023-06-10T15:11:48.648Z,26.98
2023-06-10T15:16:51.809Z,26.23
2023-06-10T15:21:55.050Z,26.39
2023-06-10T15:26:59.107Z,26.35
2023-06-10T15:32:02.072Z,26.05
2023-06-10T15:37:05.366Z,26.68
2023-06-10T15:42:08.279Z,26.46
2023-06-10T15:47:12.161Z,26.75
2023-06-10T15:52:15.857Z,26.63
2023-06-10T15:57:18.703Z,26.50
2023-06-10T16:02:21.677Z,26.38
2023-06-10T16:07:27.229Z,26.33
2023-06-10T16:12:29.976Z,26.11
2023-06-10T16:17:33.482Z,25.75
2023-06-10T16:22:36.752Z,25.95
2023-06-10T16:27:39.370Z,26.36
2023-06-10T16:32:44.269Z,26.53
2023-06-10T16:37:47.170Z,26.98
2023-06-10T16:42:50.968Z,26.94
2023-06-10T16:47:55.187Z,26.67
2023-06-10T16:53:02.927Z,26.74
2023-06-10T16:58:08.591Z,27.23
2023-06-10T17:03:15.104Z,27.65
2023-06-10T17:08:18.035Z,28.12
2023-06-10T17:13:21.268Z,28.08
2023-06-10T17:18:24.213Z,28.38
2023-06-10T17:23:30.168Z,28.41
2023-06-10T17:28:35.042Z,28.58
2023-06-10T17:33:38.239Z,28.58
2023-06-10T17:38:43.252Z,28.82
2023-06-10T17:43:46.077Z,29.18
2023-06-10T17:48:51.819Z,29.78
2023-06-10T17:53:54.516Z,30.65
2023-06-10T17:58:57.346Z,31.51
2023-06-10T18:04:07.953Z,32.16
2023-06-10T18:09:15.210Z,32.68
2023-06-10T18:14:17.972Z,33.30
2023-06-10T18:19:22.961Z,33.61
2023-06-10T18:24:25.944Z,34.13
2023-06-10T18:29:28.779Z,34.53
2023-06-10T18:34:31.841Z,34.81
2023-06-10T18:39:36.161Z,35.03
2023-06-10T18:44:38.939Z,35.38
2023-06-10T18:49:48.710Z,35.43
2023-06-10T18:54:55.179Z,35.67
2023-06-10T18:59:58.334Z,35.80
2023-06-10T19:05:02.667Z,36.03
2023-06-10T19:10:08.380Z,36.25
2023-06-10T19:15:12.127Z,36.18
2023-06-10T19:20:16.367Z,35.96
2023-06-10T19:25:23.312Z,36.00
2023-06-10T19:30:26.029Z,36.11
2023-06-10T19:35:29.153Z,36.36
2023-06-10T19:40:35.209Z,36.56
2023-06-10T19:45:38.135Z,36.81
2023-06-10T19:50:41.205Z,36.92
2023-06-10T19:55:44.390Z,37.12
2023-06-10T20:00:48.838Z,37.28
2023-06-10T20:05:51.935Z,37.38
2023-06-10T20:10:56.391Z,37.40
2023-06-10T20:16:02.935Z,37.58
2023-06-10T20:21:07.139Z,37.81
2023-06-10T20:26:10.029Z,37.90
2023-06-10T20:31:22.945Z,37.94
2023-06-10T20:36:29.618Z,38.06
2023-06-10T20:41:35.499Z,38.19
2023-06-10T20:46:38.635Z,38.28
2023-06-10T20:51:43.641Z,38.30
2023-06-10T20:56:49.425Z,38.37
2023-06-10T21:01:52.525Z,38.59
2023-06-10T21:06:57.965Z,38.55
2023-06-10T21:12:02.065Z,38.65
2023-06-10T21:17:05.182Z,38.71
2023-06-10T21:22:08.659Z,38.93
2023-06-10T21:27:12.205Z,39.25
2023-06-10T21:32:15.540Z,39.52
2023-06-10T21:37:18.324Z,39.74
2023-06-10T21:42:22.585Z,40.01
2023-06-10T21:47:25.455Z,40.24
2023-06-10T21:52:28.384Z,40.64
2023-06-10T21:57:31.251Z,41.10
2023-06-10T22:02:33.984Z,41.41
2023-06-10T22:07:42.216Z,41.80
2023-06-10T22:12:44.994Z,42.04
2023-06-10T22:17:47.803Z,42.31
2023-06-10T22:22:50.696Z,42.68
2023-06-10T22:27:53.526Z,43.00
2023-06-10T22:32:56.411Z,43.51
2023-06-10T22:37:59.369Z,43.82
2023-06-10T22:43:02.242Z,44.16
2023-06-10T22:48:05.573Z,44.47
2023-06-10T22:53:08.531Z,44.67
2023-06-10T22:58:11.551Z,45.04
2023-06-10T23:03:14.395Z,45.15
2023-06-10T23:08:19.720Z,45.39
2023-06-10T23:13:22.615Z,45.68
2023-06-10T23:18:25.332Z,45.94
2023-06-10T23:23:39.299Z,46.22
2023-06-10T23:28:43.153Z,46.55
2023-06-10T23:33:47.022Z,46.74
2023-06-10T23:38:49.945Z,46.97
2023-06-10T23:43:54.083Z,47.15
2023-06-10T23:48:56.718Z,47.37
2023-06-10T23:54:02.409Z,47.69
2023-06-10T23:59:05.114Z,47.85
